CheckWX is a tool to help pilots better visualize weather data.  It is not intended as a substitute for an official pre-flight weather briefing.

06:51:48 UTC

ENSO METAR
Stord Airport
Leirvik, Norway
Current

32 mins ago

ENSO 270620Z 11010KT 9999 FEW015 BKN018 M00/M02 Q0992
Observed
Feb-27 @ 06:20 UTC
Wind
  • 110° at 10 KTS
Visibility
10,000+ meters
Flight Rules
MVFR
Cloud Levels
  • Few at 1,500' AGL
  • Broken at 1,800' AGL
Temperature
C / 32°F
Dewpoint
-2°C / 28°F
Humidity
87%
Altimeter
29.29" Hg
Pressure
991.92 hPa
Previous

1 hour ago

ENSO 270550Z 11012KT 9999 FEW015 BKN020 M00/M02 Q0992
Observed
Feb-27 @ 05:50 UTC
Wind
  • 110° at 12 KTS
Visibility
10,000+ meters
Flight Rules
MVFR
Cloud Levels
  • Few at 1,500' AGL
  • Broken at 2,000' AGL
Temperature
C / 32°F
Dewpoint
-2°C / 28°F
Humidity
87%
Altimeter
29.29" Hg
Pressure
991.92 hPa
Previous

2 hours ago

ENSO 270520Z 12011KT 9999 FEW012 BKN017 M01/M02 Q0992
Observed
Feb-27 @ 05:20 UTC
Wind
  • 120° at 11 KTS
Visibility
10,000+ meters
Flight Rules
MVFR
Cloud Levels
  • Few at 1,200' AGL
  • Broken at 1,700' AGL
Temperature
-1°C / 30°F
Dewpoint
-2°C / 28°F
Humidity
93%
Altimeter
29.29" Hg
Pressure
991.92 hPa